createdAt,value
2018-08-29T00:00:58.225Z,10.10
2018-08-29T00:05:42.108Z,8.57
2018-08-29T00:10:25.951Z,8.10
2018-08-29T00:15:09.810Z,8.50
2018-08-29T00:19:53.757Z,6.53
2018-08-29T00:24:37.734Z,8.63
2018-08-29T00:29:21.477Z,8.07
2018-08-29T00:34:05.179Z,8.90
2018-08-29T00:38:48.985Z,9.10
2018-08-29T00:43:32.663Z,10.17
2018-08-29T00:48:16.385Z,8.77
2018-08-29T00:53:00.060Z,8.30
2018-08-29T00:57:43.861Z,12.03
2018-08-29T01:02:27.543Z,9.00
2018-08-29T01:07:11.338Z,8.90
2018-08-29T01:11:55.112Z,8.00
2018-08-29T01:16:38.919Z,8.53
2018-08-29T01:21:22.576Z,7.70
2018-08-29T01:26:06.347Z,9.57
2018-08-29T01:30:49.956Z,8.63
2018-08-29T01:35:33.805Z,9.07
2018-08-29T01:40:18.628Z,8.03
2018-08-29T01:45:02.334Z,10.47
2018-08-29T01:49:46.224Z,9.70
2018-08-29T01:54:29.920Z,8.97
2018-08-29T01:59:13.573Z,11.50
2018-08-29T02:03:57.322Z,13.00
2018-08-29T02:08:41.397Z,8.70
2018-08-29T02:13:26.715Z,11.83
2018-08-29T02:18:10.504Z,8.60
2018-08-29T02:22:54.299Z,8.67
2018-08-29T02:27:38.044Z,8.77
2018-08-29T02:32:21.767Z,9.37
2018-08-29T02:37:05.653Z,10.40
2018-08-29T02:41:49.522Z,8.93
2018-08-29T02:46:33.315Z,8.93
2018-08-29T02:51:17.099Z,10.07
2018-08-29T02:56:00.877Z,10.67
2018-08-29T03:00:44.631Z,8.80
2018-08-29T03:05:28.367Z,8.50
2018-08-29T03:10:12.342Z,8.33
2018-08-29T03:14:56.275Z,9.07
2018-08-29T03:19:40.006Z,10.67
2018-08-29T03:24:23.727Z,8.97
2018-08-29T03:29:07.523Z,9.60
2018-08-29T03:33:51.208Z,9.70
2018-08-29T03:38:35.056Z,9.43
2018-08-29T03:43:19.631Z,10.00
2018-08-29T03:48:03.354Z,12.43
2018-08-29T03:52:47.100Z,9.77
2018-08-29T03:57:31.002Z,13.23
2018-08-29T04:02:14.667Z,12.07
2018-08-29T04:06:58.354Z,11.57
2018-08-29T04:11:42.186Z,10.90
2018-08-29T04:16:25.856Z,12.03
2018-08-29T04:21:09.510Z,10.73
2018-08-29T04:25:53.352Z,10.03
2018-08-29T04:30:37.098Z,9.93
2018-08-29T04:35:20.976Z,9.17
2018-08-29T04:40:04.720Z,10.23
2018-08-29T04:44:48.721Z,11.83
2018-08-29T04:49:32.404Z,10.67
2018-08-29T04:54:16.327Z,10.33
2018-08-29T04:59:00.225Z,9.50
2018-08-29T05:03:44.096Z,12.40
2018-08-29T05:08:27.791Z,11.37
2018-08-29T05:13:11.501Z,10.07
2018-08-29T05:17:55.242Z,11.77
2018-08-29T05:22:39.075Z,9.80
2018-08-29T05:27:23.283Z,8.87
2018-08-29T05:32:07.053Z,11.13
2018-08-29T05:36:50.856Z,11.33
2018-08-29T05:41:34.687Z,9.93
2018-08-29T05:46:18.321Z,11.30
2018-08-29T05:51:02.000Z,11.33
2018-08-29T05:55:47.015Z,12.67
2018-08-29T06:00:31.025Z,10.20
2018-08-29T06:05:17.784Z,11.10
2018-08-29T06:10:03.263Z,11.57
2018-08-29T06:14:46.945Z,21.90
2018-08-29T06:19:30.825Z,21.73
2018-08-29T06:24:14.597Z,15.00
2018-08-29T06:29:00.609Z,14.07
2018-08-29T06:33:44.319Z,12.70
2018-08-29T06:38:28.182Z,12.20
2018-08-29T06:43:11.809Z,12.70
2018-08-29T06:47:55.583Z,12.07
2018-08-29T06:52:39.267Z,13.57
2018-08-29T06:57:23.098Z,13.43
2018-08-29T07:02:06.925Z,12.70
2018-08-29T07:06:50.952Z,14.33
2018-08-29T07:11:34.753Z,12.83
2018-08-29T07:16:18.786Z,12.03
2018-08-29T07:21:02.601Z,14.50
2018-08-29T07:25:48.384Z,11.40
2018-08-29T07:30:32.511Z,10.13
2018-08-29T07:35:16.562Z,9.77
2018-08-29T07:40:00.411Z,12.60
2018-08-29T07:44:44.213Z,10.70
2018-08-29T07:49:27.930Z,11.53
2018-08-29T07:54:12.179Z,14.17
2018-08-29T07:58:56.127Z,9.73
2018-08-29T08:03:39.937Z,9.93
2018-08-29T08:08:24.155Z,9.00
2018-08-29T08:13:07.674Z,11.47
2018-08-29T08:17:51.353Z,10.13
2018-08-29T08:22:35.278Z,11.00
2018-08-29T08:27:19.274Z,10.17
2018-08-29T08:32:04.410Z,9.27
2018-08-29T08:36:48.319Z,9.83
2018-08-29T08:41:32.275Z,11.33
2018-08-29T08:46:16.137Z,8.17
2018-08-29T08:51:00.142Z,8.13
2018-08-29T08:55:43.901Z,9.30
2018-08-29T09:00:27.880Z,6.43
2018-08-29T09:05:11.491Z,7.80
2018-08-29T09:09:55.283Z,6.90
2018-08-29T09:14:38.991Z,9.70
2018-08-29T09:19:22.752Z,6.80
2018-08-29T09:24:06.940Z,6.13
2018-08-29T09:28:51.088Z,6.53
2018-08-29T09:33:35.824Z,8.40
2018-08-29T09:38:19.762Z,6.75
2018-08-29T09:43:03.404Z,13.72
2018-08-29T09:47:47.213Z,10.32
2018-08-29T09:52:30.861Z,11.88
2018-08-29T09:57:14.607Z,6.83
2018-08-29T10:01:58.898Z,12.60
2018-08-29T10:06:42.779Z,9.43
2018-08-29T10:11:26.541Z,16.42
2018-08-29T10:16:10.261Z,8.65
2018-08-29T10:20:53.999Z,9.30
2018-08-29T10:25:37.746Z,6.83
2018-08-29T10:30:21.499Z,6.15
2018-08-29T10:35:05.483Z,7.42
2018-08-29T10:39:49.197Z,6.15
2018-08-29T10:44:32.891Z,6.72
2018-08-29T10:49:17.423Z,7.58
2018-08-29T10:54:01.333Z,9.00
2018-08-29T10:58:44.985Z,6.95
2018-08-29T11:03:28.778Z,7.15
2018-08-29T11:08:13.484Z,6.62
2018-08-29T11:12:57.335Z,6.92
2018-08-29T11:17:42.178Z,6.37
2018-08-29T11:22:25.937Z,7.03
2018-08-29T11:27:09.608Z,6.72
2018-08-29T11:31:53.413Z,6.85
2018-08-29T11:36:37.062Z,6.80
2018-08-29T11:41:20.749Z,6.90
2018-08-29T11:46:04.423Z,6.60
2018-08-29T11:50:48.026Z,7.12
2018-08-29T11:55:31.936Z,7.00
2018-08-29T12:00:16.512Z,6.95
2018-08-29T12:05:00.247Z,6.53
2018-08-29T12:09:56.021Z,6.83
2018-08-29T12:14:39.840Z,8.50
2018-08-29T12:19:23.715Z,7.53
2018-08-29T12:24:07.424Z,6.78
2018-08-29T12:28:51.141Z,6.95
2018-08-29T12:33:34.909Z,8.83
2018-08-29T12:38:18.973Z,8.23
2018-08-29T12:43:02.711Z,8.80
2018-08-29T12:47:46.650Z,7.10
2018-08-29T12:52:30.500Z,7.25
2018-08-29T12:57:14.318Z,9.03
2018-08-29T13:01:58.108Z,7.92
2018-08-29T13:06:41.983Z,7.17
2018-08-29T13:11:25.648Z,8.28
2018-08-29T13:16:09.607Z,7.97
2018-08-29T13:20:53.467Z,7.62
2018-08-29T13:25:37.480Z,11.95
2018-08-29T13:30:21.222Z,8.35
2018-08-29T13:35:05.258Z,7.83
2018-08-29T13:39:48.957Z,8.98
2018-08-29T13:44:32.957Z,8.15
2018-08-29T13:49:16.946Z,8.10
2018-08-29T13:54:00.901Z,11.48
2018-08-29T13:58:44.768Z,8.48
2018-08-29T14:03:28.610Z,9.18
2018-08-29T14:08:12.484Z,10.43
2018-08-29T14:12:56.543Z,9.13
2018-08-29T14:17:40.277Z,11.22
2018-08-29T14:22:23.954Z,9.73
2018-08-29T14:27:07.777Z,9.88
2018-08-29T14:31:51.608Z,9.93
2018-08-29T14:36:35.927Z,9.20
2018-08-29T14:41:19.855Z,9.55
2018-08-29T14:46:03.556Z,10.82
2018-08-29T14:50:47.498Z,10.98
2018-08-29T14:55:31.195Z,9.15
2018-08-29T15:01:24.134Z,9.13
2018-08-29T15:06:08.116Z,9.18
2018-08-29T15:10:51.846Z,9.15
2018-08-29T15:15:35.857Z,10.40
2018-08-29T15:20:20.217Z,10.35
2018-08-29T15:25:04.263Z,9.95
2018-08-29T15:29:48.046Z,11.22
2018-08-29T15:34:31.732Z,9.43
2018-08-29T15:39:15.630Z,8.35
2018-08-29T15:43:59.438Z,10.45
2018-08-29T15:48:43.436Z,9.63
2018-08-29T15:53:39.020Z,8.80
2018-08-29T15:58:22.940Z,9.20
2018-08-29T16:03:06.736Z,9.90
2018-08-29T16:07:50.416Z,10.40
2018-08-29T16:12:34.111Z,9.43
2018-08-29T16:17:20.544Z,9.53
2018-08-29T16:22:05.326Z,12.45
2018-08-29T16:26:49.275Z,9.53
2018-08-29T16:31:38.417Z,11.18
2018-08-29T16:36:22.133Z,10.08
2018-08-29T16:41:05.960Z,9.83
2018-08-29T16:45:52.757Z,9.08
2018-08-29T16:50:36.655Z,11.57
2018-08-29T16:55:20.484Z,9.65
2018-08-29T17:00:04.373Z,9.63
2018-08-29T17:04:48.390Z,8.85
2018-08-29T17:09:32.199Z,9.03
2018-08-29T17:14:15.942Z,11.38
2018-08-29T17:19:00.413Z,9.55
2018-08-29T17:23:44.214Z,10.83
2018-08-29T17:33:35.877Z,9.27
2018-08-29T17:38:20.286Z,9.83
2018-08-29T17:43:04.089Z,10.30
2018-08-29T17:47:47.898Z,9.93
2018-08-29T17:52:32.649Z,9.10
2018-08-29T17:57:16.408Z,11.97
2018-08-29T18:02:03.915Z,8.80
2018-08-29T18:06:47.692Z,9.07
2018-08-29T18:11:31.883Z,9.07
2018-08-29T18:16:15.668Z,9.40
2018-08-29T18:21:00.165Z,9.33
2018-08-29T18:25:44.165Z,10.07
2018-08-29T18:30:41.311Z,9.50
2018-08-29T18:35:25.134Z,8.50
2018-08-29T18:40:08.942Z,9.13
2018-08-29T18:44:52.912Z,9.60
2018-08-29T18:49:36.623Z,15.07
2018-08-29T18:54:21.956Z,10.27
2018-08-29T18:59:08.754Z,11.07
2018-08-29T19:03:53.563Z,10.03
2018-08-29T19:08:39.196Z,11.30
2018-08-29T19:13:24.128Z,9.80
2018-08-29T19:18:07.996Z,11.60
2018-08-29T19:22:51.736Z,11.73
2018-08-29T19:27:35.527Z,19.17
2018-08-29T19:32:21.141Z,29.60
2018-08-29T19:37:05.080Z,27.30
2018-08-29T19:41:48.776Z,18.70
2018-08-29T19:46:32.604Z,12.83
2018-08-29T19:51:16.350Z,12.53
2018-08-29T19:56:00.128Z,11.63
2018-08-29T20:00:43.845Z,14.15
2018-08-29T20:05:27.646Z,11.60
2018-08-29T20:10:11.392Z,11.60
2018-08-29T20:14:55.161Z,10.13
2018-08-29T20:19:38.847Z,10.33
2018-08-29T20:24:22.720Z,11.30
2018-08-29T20:29:06.412Z,14.50
2018-08-29T20:33:50.221Z,12.30
2018-08-29T20:38:33.997Z,9.77
2018-08-29T20:43:17.810Z,14.47
2018-08-29T20:48:22.060Z,11.57
2018-08-29T20:52:46.852Z,12.07
2018-08-29T20:57:30.560Z,9.97
2018-08-29T21:02:14.269Z,9.47
2018-08-29T21:06:57.940Z,11.87
2018-08-29T21:11:41.609Z,10.47
2018-08-29T21:16:25.437Z,10.10
2018-08-29T21:21:09.229Z,9.77
2018-08-29T21:25:53.018Z,8.67
2018-08-29T21:30:47.848Z,10.73
2018-08-29T21:35:42.490Z,9.93
2018-08-29T21:40:26.166Z,9.70
2018-08-29T21:45:21.122Z,12.07
2018-08-29T21:51:28.726Z,9.47
2018-08-29T21:57:29.632Z,10.50
2018-08-29T22:02:33.824Z,11.20
2018-08-29T22:07:17.776Z,14.07
2018-08-29T22:12:01.458Z,11.77
2018-08-29T22:16:45.225Z,11.57
2018-08-29T22:21:29.029Z,12.30
2018-08-29T22:26:12.818Z,11.63
2018-08-29T22:30:56.598Z,11.50
2018-08-29T22:40:34.848Z,12.20
2018-08-29T22:45:18.572Z,10.77
2018-08-29T22:50:02.247Z,11.90
2018-08-29T22:54:46.004Z,10.77
2018-08-29T22:59:29.786Z,11.87
2018-08-29T23:04:13.514Z,9.53
2018-08-29T23:08:57.701Z,10.63
2018-08-29T23:13:41.413Z,10.37
2018-08-29T23:18:25.147Z,10.20
2018-08-29T23:23:08.805Z,12.67
2018-08-29T23:27:52.595Z,11.50
2018-08-29T23:32:36.362Z,11.03
2018-08-29T23:37:20.158Z,13.50
2018-08-29T23:42:03.966Z,11.90
2018-08-29T23:46:47.682Z,9.90
2018-08-29T23:51:31.413Z,11.73
2018-08-29T23:56:15.166Z,13.50
